Latest Weather Observations for Hay Point

IDQ60801

Issued at 2:02 pm EST Monday 30 March 2015 (issued every 30 minutes, with the page automatically refreshed every 10 minutes)

About weather observations | Map of weather stations | Latest weather observations for QLD | Other Formats
Station Details ID: 033317 Name: HAY POINT Lat: -21.29 Lon: 149.30 Height: 7.0 m
Data from the previous 72 hours. | See also: Recent months for locations in Queensland
Date/Time
EST
Temp
°C
App
Temp
°C
Dew
Point
Rel
Hum
%
Delta-T
°C
Wind Press
QNH
hPa
Press
MSL
hPa
Rain
since 9 am
mm
Dir
 
Spd
km/h
Gust
km/h
Spd
kts
Gust
kts
30/02:00pm - - - - - ENE 44 54 24 29 - - -
30/01:49pm - - - - - E 28 48 15 26 - - -
30/01:30pm - - - - - E 19 24 10 13 - - -
30/01:00pm - - - - - ENE 22 28 12 15 - - -
30/12:30pm - - - - - E 26 30 14 16 - - -
30/12:00pm - - - - - ENE 26 32 14 17 - - -
30/11:30am - - - - - ENE 28 32 15 17 - - -
30/11:00am - - - - - E 26 32 14 17 - - -
30/10:30am - - - - - E 20 26 11 14 - - -
30/10:00am - - - - - E 20 26 11 14 - - -
30/09:30am - - - - - E 28 32 15 17 - - -
30/09:00am - - - - - E 22 26 12 14 - - -
30/08:30am - - - - - ESE 22 30 12 16 - - -
30/08:00am - - - - - ESE 19 24 10 13 - - -
30/07:55am - - - - - ESE 20 26 11 14 - - -
30/07:30am - - - - - E 46 63 25 34 - - -
30/07:23am - - - - - ESE 33 63 18 34 - - -
30/07:21am - - - - - ESE 30 57 16 31 - - -
30/07:17am - - - - - SE 30 44 16 24 - - -
30/07:00am - - - - - SE 19 26 10 14 - - -
30/06:30am - - - - - SE 28 33 15 18 - - -
30/06:09am - - - - - ESE 32 50 17 27 - - -
30/06:00am - - - - - SSE 32 39 17 21 - - -
30/05:30am - - - - - SSW 17 33 9 18 - - -
30/05:00am - - - - - SW 20 26 11 14 - - -
30/04:30am - - - - - SSW 24 33 13 18 - - -
30/04:00am - - - - - SSW 22 30 12 16 - - -
30/03:30am - - - - - S 24 44 13 24 - - -
30/03:20am - - - - - S 32 44 17 24 - - -
30/03:00am - - - - - SW 20 26 11 14 - - -
30/02:30am - - - - - SW 19 24 10 13 - - -
30/02:00am - - - - - S 26 33 14 18 - - -
30/01:30am - - - - - SSE 32 37 17 20 - - -
30/01:00am - - - - - SSE 32 37 17 20 - - -
30/12:38am - - - - - SSE 32 39 17 21 - - -
30/12:30am - - - - - SSE 39 48 21 26 - - -
30/12:00am - - - - - SSE 37 43 20 23 - - -
 
Date/Time
EST
Temp
°C
App
Temp
°C
Dew
Point
Rel
Hum
%
Delta-T
°C
Wind Press
QNH
hPa
Press
MSL
hPa
Rain
since 9 am
mm
Dir
 
Spd
km/h
Gust
km/h
Spd
kts
Gust
kts
29/11:30pm - - - - - SSE 32 44 17 24 - - -
29/11:07pm - - - - - SE 35 56 19 30 - - -
29/11:00pm - - - - - SE 43 56 23 30 - - -
29/10:55pm - - - - - SSE 39 56 21 30 - - -
29/10:30pm - - - - - S 32 39 17 21 - - -
29/10:00pm - - - - - SE 32 37 17 20 - - -
29/09:30pm - - - - - ESE 32 37 17 20 - - -
29/09:00pm - - - - - ESE 30 35 16 19 - - -
29/08:30pm - - - - - ESE 30 33 16 18 - - -
29/08:00pm - - - - - S 20 30 11 16 - - -
29/07:30pm - - - - - SE 19 30 10 16 - - -
29/07:00pm - - - - - SW 17 19 9 10 - - -
29/06:30pm - - - - - SSW 20 26 11 14 - - -
29/06:00pm - - - - - SW 17 22 9 12 - - -
29/05:30pm - - - - - SW 20 26 11 14 - - -
29/05:00pm - - - - - S 15 20 8 11 - - -
29/04:30pm - - - - - SSE 22 32 12 17 - - -
29/04:00pm - - - - - ESE 26 32 14 17 - - -
29/03:30pm - - - - - E 28 33 15 18 - - -
29/03:00pm - - - - - E 26 35 14 19 - - -
29/02:30pm - - - - - E 28 32 15 17 - - -
29/02:00pm - - - - - E 30 33 16 18 - - -
29/01:30pm - - - - - E 22 26 12 14 - - -
29/01:00pm - - - - - E 20 26 11 14 - - -
29/12:30pm - - - - - ENE 26 30 14 16 - - -
29/12:00pm - - - - - E 26 32 14 17 - - -
29/11:30am - - - - - E 28 35 15 19 - - -
29/11:00am - - - - - ENE 39 48 21 26 - - -
29/10:45am - - - - - E 22 39 12 21 - - -
29/10:30am - - - - - SSE 19 24 10 13 - - -
29/10:00am - - - - - ESE 28 32 15 17 - - -
29/09:30am - - - - - ESE 24 30 13 16 - - -
29/09:00am - - - - - E 28 32 15 17 - - -
29/08:30am - - - - - ESE 30 35 16 19 - - -
29/08:00am - - - - - ESE 30 35 16 19 - - -
29/07:30am - - - - - ESE 28 33 15 18 - - -
29/07:00am - - - - - E 28 35 15 19 - - -
29/06:30am - - - - - E 28 35 15 19 - - -
29/06:00am - - - - - E 32 37 17 20 - - -
29/05:30am - - - - - E 26 32 14 17 - - -
29/05:00am - - - - - E 28 33 15 18 - - -
29/04:30am - - - - - E 32 35 17 19 - - -
29/04:00am - - - - - E 30 35 16 19 - - -
29/03:30am - - - - - ESE 26 32 14 17 - - -
29/03:00am - - - - - E 24 30 13 16 - - -
29/02:30am - - - - - E 28 33 15 18 - - -
29/02:00am - - - - - E 28 33 15 18 - - -
29/01:30am - - - - - E 28 32 15 17 - - -
29/01:00am - - - - - E 30 37 16 20 - - -
29/12:30am - - - - - E 33 39 18 21 - - -
29/12:00am - - - - - E 35 41 19 22 - - -
 
Date/Time
EST
Temp
°C
App
Temp
°C
Dew
Point
Rel
Hum
%
Delta-T
°C
Wind Press
QNH
hPa
Press
MSL
hPa
Rain
since 9 am
mm
Dir
 
Spd
km/h
Gust
km/h
Spd
kts
Gust
kts
28/11:30pm - - - - - E 30 35 16 19 - - -
28/11:00pm - - - - - E 32 35 17 19 - - -
28/10:30pm - - - - - E 32 35 17 19 - - -
28/10:00pm - - - - - ESE 32 37 17 20 - - -
28/09:30pm - - - - - ESE 33 39 18 21 - - -
28/09:00pm - - - - - ESE 30 35 16 19 - - -
28/08:30pm - - - - - ESE 32 39 17 21 - - -
28/08:00pm - - - - - ESE 28 33 15 18 - - -
28/07:30pm - - - - - ESE 26 32 14 17 - - -
28/07:00pm - - - - - ESE 26 32 14 17 - - -
28/06:30pm - - - - - ESE 26 30 14 16 - - -
28/06:00pm - - - - - ESE 22 28 12 15 - - -
28/05:30pm - - - - - ESE 26 30 14 16 - - -
28/05:00pm - - - - - ESE 24 32 13 17 - - -
28/04:30pm - - - - - SE 22 32 12 17 - - -
28/04:00pm - - - - - SE 26 32 14 17 - - -
28/03:30pm - - - - - SE 24 32 13 17 - - -
28/03:00pm - - - - - ESE 24 33 13 18 - - -
28/02:30pm - - - - - SE 24 32 13 17 - - -
28/02:00pm - - - - - ESE 24 32 13 17 - - -
28/01:30pm - - - - - ESE 28 33 15 18 - - -
28/01:00pm - - - - - ESE 28 33 15 18 - - -
28/12:30pm - - - - - ESE 26 33 14 18 - - -
28/12:00pm - - - - - ESE 26 32 14 17 - - -
28/11:30am - - - - - SSE 19 26 10 14 - - -
28/11:00am - - - - - SSE 24 30 13 16 - - -
28/10:30am - - - - - SE 20 28 11 15 - - -
28/10:00am - - - - - SE 19 26 10 14 - - -
28/09:30am - - - - - SE 17 24 9 13 - - -
28/09:00am - - - - - ESE 19 24 10 13 - - -
28/08:30am - - - - - SE 17 24 9 13 - - -
28/08:00am - - - - - ESE 19 22 10 12 - - -
28/07:30am - - - - - ESE 19 28 10 15 - - -
28/07:00am - - - - - ESE 19 26 10 14 - - -
28/06:30am - - - - - E 19 24 10 13 - - -
28/06:00am - - - - - E 20 26 11 14 - - -
28/05:30am - - - - - E 20 28 11 15 - - -
28/05:00am - - - - - E 20 28 11 15 - - -
28/04:30am - - - - - E 20 26 11 14 - - -
28/04:00am - - - - - E 20 28 11 15 - - -
28/03:30am - - - - - E 19 24 10 13 - - -
28/03:00am - - - - - ESE 17 20 9 11 - - -
28/02:30am - - - - - E 20 24 11 13 - - -
28/02:00am - - - - - E 19 24 10 13 - - -
28/01:30am - - - - - ENE 17 22 9 12 - - -
28/01:00am - - - - - E 19 26 10 14 - - -
28/12:30am - - - - - ENE 22 26 12 14 - - -
28/12:00am - - - - - E 22 28 12 15 - - -
 
Date/Time
EST
Temp
°C
App
Temp
°C
Dew
Point
Rel
Hum
%
Delta-T
°C
Wind Press
QNH
hPa
Press
MSL
hPa
Rain
since 9 am
mm
Dir
 
Spd
km/h
Gust
km/h
Spd
kts
Gust
kts
27/11:30pm - - - - - E 20 26 11 14 - - -
27/11:00pm - - - - - ENE 24 28 13 15 - - -
27/10:30pm - - - - - ENE 24 28 13 15 - - -
27/10:00pm - - - - - E 24 28 13 15 - - -
27/09:30pm - - - - - ENE 20 30 11 16 - - -
27/09:00pm - - - - - E 20 26 11 14 - - -
27/08:30pm - - - - - E 20 24 11 13 - - -
27/08:00pm - - - - - E 19 22 10 12 - - -
27/07:30pm - - - - - E 20 26 11 14 - - -
27/07:00pm - - - - - E 19 26 10 14 - - -
27/06:30pm - - - - - E 20 24 11 13 - - -
27/06:00pm - - - - - E 20 24 11 13 - - -
27/05:30pm - - - - - ESE 17 22 9 12 - - -
27/05:00pm - - - - - E 17 20 9 11 - - -
27/04:30pm - - - - - E 19 22 10 12 - - -
27/04:00pm - - - - - E 19 22 10 12 - - -
27/03:30pm - - - - - E 19 22 10 12 - - -
27/03:00pm - - - - - E 20 24 11 13 - - -
27/02:30pm - - - - - E 19 24 10 13 - - -

Other Formats:

Comma delimited format used in spreadsheet applications
http://www.bom.gov.au/fwo/IDQ60801/IDQ60801.99367.axf

JavaScript Object Notation format (JSON) in row-major order
http://www.bom.gov.au/fwo/IDQ60801/IDQ60801.99367.json